createdAt,value
2018-10-07T08:47:49.538Z,1004
2018-10-07T08:50:49.541Z,1004
2018-10-07T08:56:49.562Z,1004
2018-10-07T08:59:49.603Z,1003
2018-10-07T09:02:49.605Z,1003
2018-10-07T09:05:49.628Z,1003
2018-10-07T09:08:49.683Z,1001
2018-10-07T09:11:49.663Z,1000
2018-10-07T09:14:49.674Z,998
2018-10-07T09:17:49.696Z,997
2018-10-07T09:20:49.736Z,994
2018-10-07T09:23:49.736Z,991
2018-10-07T09:26:49.819Z,989
2018-10-07T09:29:49.770Z,988
2018-10-07T09:38:49.814Z,985
2018-10-07T09:44:49.821Z,984
2018-10-07T09:47:49.861Z,984
2018-10-07T09:50:49.855Z,984
2018-10-07T09:53:49.891Z,983
2018-10-07T09:59:49.933Z,983
2018-10-07T10:02:50.067Z,983
2018-10-07T10:05:49.991Z,983
2018-10-07T10:08:50.126Z,983
2018-10-07T10:11:50.134Z,983
2018-10-07T10:14:50.053Z,983
2018-10-07T10:20:50.094Z,983
2018-10-07T10:23:50.118Z,983
2018-10-07T10:26:50.127Z,983
2018-10-07T10:29:50.394Z,982
2018-10-07T10:32:50.204Z,982
2018-10-07T10:35:50.209Z,982
2018-10-07T10:41:50.278Z,982
2018-10-07T10:44:50.297Z,981
2018-10-07T10:47:50.320Z,981
2018-10-07T10:50:50.356Z,982
2018-10-07T11:05:50.500Z,982
2018-10-07T11:11:50.537Z,982
2018-10-07T11:14:50.603Z,983
2018-10-07T11:26:50.791Z,983
2018-10-07T11:29:50.749Z,983
2018-10-07T11:35:50.889Z,983
2018-10-07T11:38:50.815Z,983
2018-10-07T11:41:50.875Z,983
2018-10-07T11:44:50.999Z,983
2018-10-07T11:47:50.925Z,983
2018-10-07T11:50:50.945Z,983
2018-10-07T11:53:51.149Z,983
2018-10-07T11:56:51.020Z,983
2018-10-07T11:59:51.039Z,983
2018-10-07T12:02:51.588Z,983
2018-10-07T12:05:51.235Z,983
2018-10-07T12:08:51.131Z,983
2018-10-07T12:11:51.182Z,983
2018-10-07T12:14:51.206Z,983
2018-10-07T12:17:51.357Z,983
2018-10-07T12:20:51.373Z,983
2018-10-07T12:23:51.307Z,983
2018-10-07T12:26:51.431Z,983
2018-10-07T12:29:51.345Z,983
2018-10-07T12:32:51.832Z,983
2018-10-07T12:35:51.508Z,983
2018-10-07T12:38:51.449Z,983
2018-10-07T12:41:51.495Z,983
2018-10-07T12:44:51.619Z,983
2018-10-07T12:47:51.582Z,983
2018-10-07T12:50:51.594Z,983
2018-10-07T12:53:51.609Z,983
2018-10-07T12:56:51.753Z,983
2018-10-07T12:59:51.672Z,983
2018-10-07T13:02:51.671Z,983
2018-10-07T13:05:51.687Z,983
2018-10-07T13:08:51.741Z,984
2018-10-07T13:11:51.771Z,984
2018-10-07T13:14:51.806Z,984
2018-10-07T13:17:51.920Z,984
2018-10-07T13:23:51.885Z,984
2018-10-07T13:26:51.921Z,984
2018-10-07T13:29:52.038Z,984
2018-10-07T13:32:51.980Z,984
2018-10-07T13:35:52.409Z,984
2018-10-07T13:38:52.121Z,984
2018-10-07T13:47:52.094Z,984
2018-10-07T13:50:52.116Z,984
2018-10-07T13:53:52.149Z,984
2018-10-07T13:56:52.183Z,984
2018-10-07T13:59:52.323Z,984
2018-10-07T14:02:52.362Z,984
2018-10-07T14:05:52.253Z,984
2018-10-07T14:08:52.278Z,983
2018-10-07T14:11:52.305Z,983
2018-10-07T14:14:52.331Z,983
2018-10-07T14:17:52.379Z,983
2018-10-07T14:20:52.382Z,983
2018-10-07T14:23:52.473Z,983
2018-10-07T14:26:52.651Z,983
2018-10-07T14:29:52.539Z,983
2018-10-07T14:32:52.463Z,983
2018-10-07T14:35:52.455Z,983
2018-10-07T14:38:52.472Z,983
2018-10-07T14:41:52.482Z,983
2018-10-07T14:44:52.500Z,983
2018-10-07T14:47:52.634Z,983
2018-10-07T14:50:52.535Z,983
2018-10-07T14:53:52.531Z,983
2018-10-07T14:56:52.547Z,983
2018-10-07T14:59:52.570Z,983
2018-10-07T15:02:52.587Z,983
2018-10-07T15:05:52.690Z,983
2018-10-07T15:14:52.592Z,983
2018-10-07T15:17:52.699Z,983
2018-10-07T15:20:52.609Z,983
2018-10-07T15:50:52.720Z,983
2018-10-07T15:53:52.740Z,983
2018-10-07T15:56:52.735Z,983
2018-10-07T15:59:52.738Z,983
2018-10-07T16:02:52.770Z,984
2018-10-07T16:05:53.215Z,984
2018-10-07T16:08:52.840Z,984
2018-10-07T16:32:52.989Z,984
2018-10-07T16:35:53.026Z,984
2018-10-07T16:38:52.851Z,984
2018-10-07T16:41:52.868Z,984
2018-10-07T16:44:53.212Z,984
2018-10-07T16:47:52.970Z,984
2018-10-07T16:50:52.889Z,984
2018-10-07T16:53:53.011Z,984
2018-10-07T16:56:53.008Z,984
2018-10-07T16:59:53.002Z,984
2018-10-07T17:02:52.911Z,984
2018-10-07T17:05:53.111Z,984
2018-10-07T17:08:52.931Z,984
2018-10-07T17:11:53.025Z,984
2018-10-07T17:14:52.937Z,984
2018-10-07T17:17:52.947Z,984
2018-10-07T17:20:53.374Z,984
2018-10-07T17:23:52.949Z,984
2018-10-07T17:26:52.952Z,984
2018-10-07T17:29:52.958Z,984
2018-10-07T17:32:53.021Z,984
2018-10-07T17:38:52.972Z,985
2018-10-07T17:41:53.066Z,985
2018-10-07T17:44:52.982Z,985
2018-10-07T17:47:53.077Z,985
2018-10-07T17:50:52.989Z,985
2018-10-07T17:53:53.120Z,985
2018-10-07T17:56:53.121Z,985
2018-10-07T17:59:52.992Z,985
2018-10-07T18:02:53.146Z,985
2018-10-07T18:05:53.055Z,985
